Time;durP1;ratioP1;P1;durP2;ratioP2;P2;SDS_P1;SDS_P2;PMS_P1;PMS_P2;Temp;Humidity;BMP_temperature;BMP_pressure;BME280_temperature;BME280_humidity;BME280_pressure;Samples;Min_cycle;Max_cycle;Signal;HPM_P1;HPM_P2
2023/10/21 00:01:37;;;;;;;3.58;3.28;;;;;;;20.56;44.14;94643.28;6184116;28;109490;-61
2023/10/21 00:04:40;;;;;;;3.60;3.30;;;;;;;20.55;44.11;94625.78;6174433;28;110103;-61
2023/10/21 00:07:43;;;;;;;3.53;3.23;;;;;;;20.55;44.11;94641.72;6185671;28;109229;-61
2023/10/21 00:10:47;;;;;;;3.55;3.25;;;;;;;20.55;44.38;94620.47;6185228;28;109396;-61
2023/10/21 00:13:51;;;;;;;3.70;3.40;;;;;;;20.55;44.34;94655.00;6180375;28;109229;-62
2023/10/21 00:16:54;;;;;;;3.70;3.40;;;;;;;20.53;44.31;94618.09;6180407;28;110814;-61
2023/10/21 00:19:59;;;;;;;3.45;3.15;;;;;;;20.53;44.07;94628.75;6185323;28;109267;-63
2023/10/21 00:23:02;;;;;;;3.50;3.20;;;;;;;20.54;43.89;94621.56;6185301;28;109124;-61
2023/10/21 00:26:05;;;;;;;3.90;3.50;;;;;;;20.53;44.03;94625.31;6175612;28;109891;-61
2023/10/21 00:29:11;;;;;;;3.30;3.00;;;;;;;20.51;44.50;94636.25;6184467;28;109909;-75
2023/10/21 00:32:14;;;;;;;3.40;3.10;;;;;;;20.53;44.30;94627.97;6184234;28;109285;-61
2023/10/21 00:35:17;;;;;;;3.50;2.97;;;;;;;20.52;44.27;94637.81;6184945;28;109170;-61
2023/10/21 00:38:20;;;;;;;3.30;3.00;;;;;;;20.53;44.26;94644.69;6174064;28;111122;-61
2023/10/21 00:41:24;;;;;;;3.20;2.90;;;;;;;20.53;44.13;94651.88;6184780;28;109265;-61
2023/10/21 00:44:28;;;;;;;3.75;3.20;;;;;;;20.53;44.28;94665.16;6184705;28;109113;-62
2023/10/21 00:47:32;;;;;;;3.15;2.85;;;;;;;20.50;44.46;94650.63;6162493;28;109077;-61
2023/10/21 00:50:35;;;;;;;3.30;3.00;;;;;;;20.53;44.23;94667.81;6175442;28;109340;-61
2023/10/21 00:53:39;;;;;;;3.50;3.00;;;;;;;20.52;44.31;94672.34;6184859;28;109139;-62
2023/10/21 00:56:42;;;;;;;3.70;3.40;;;;;;;20.51;44.27;94692.06;6184586;28;109183;-62
2023/10/21 00:59:47;;;;;;;4.13;3.10;;;;;;;20.51;44.25;94648.75;6175099;28;110387;-62
2023/10/21 01:02:50;;;;;;;3.80;3.00;;;;;;;20.51;44.35;94693.94;6184166;28;110230;-65
2023/10/21 01:05:53;;;;;;;3.60;2.92;;;;;;;20.50;44.42;94655.94;6184899;28;110088;-61
2023/10/21 01:08:57;;;;;;;3.50;3.20;;;;;;;20.51;44.25;94688.63;6184461;28;109132;-61
2023/10/21 01:12:00;;;;;;;3.30;3.00;;;;;;;20.51;44.20;94688.63;6173947;28;110322;-61
2023/10/21 01:15:05;;;;;;;3.50;2.83;;;;;;;20.50;44.42;94687.84;6184217;28;109934;-61
2023/10/21 01:18:08;;;;;;;3.20;2.90;;;;;;;20.51;44.23;94681.44;6184112;28;109161;-62
2023/10/21 01:21:11;;;;;;;3.15;2.70;;;;;;;20.51;44.30;94693.94;6184546;28;109067;-64
2023/10/21 01:24:16;;;;;;;3.10;2.80;;;;;;;20.50;44.35;94708.28;6173907;28;109063;-62
2023/10/21 01:27:19;;;;;;;3.67;3.28;;;;;;;20.50;44.31;94687.03;6183848;28;109220;-61
2023/10/21 01:30:23;;;;;;;3.30;3.00;;;;;;;20.49;44.19;94696.09;6183254;28;109078;-61
2023/10/21 01:33:27;;;;;;;3.20;2.83;;;;;;;20.49;44.04;94683.56;6178544;28;109087;-61
2023/10/21 01:36:30;;;;;;;3.70;3.30;;;;;;;20.49;44.43;94690.75;6178471;28;110158;-61
2023/10/21 01:39:34;;;;;;;3.67;3.00;;;;;;;20.49;44.41;94688.88;6183802;28;109796;-61
2023/10/21 01:42:38;;;;;;;2.80;2.60;;;;;;;20.49;44.26;94728.75;6183790;28;109171;-61
2023/10/21 01:45:41;;;;;;;3.30;2.80;;;;;;;20.49;44.27;94691.56;6173464;28;110390;-61
2023/10/21 01:48:45;;;;;;;3.00;2.70;;;;;;;20.49;44.20;94704.06;6183869;28;109039;-61
2023/10/21 01:51:48;;;;;;;3.30;2.90;;;;;;;20.48;44.56;94689.19;6183805;28;109156;-61
2023/10/21 01:54:53;;;;;;;3.58;3.08;;;;;;;20.47;44.29;94675.13;6183661;28;109611;-61
2023/10/21 01:57:56;;;;;;;3.50;3.10;;;;;;;20.48;44.46;94689.19;6173352;28;109243;-61
2023/10/21 02:00:59;;;;;;;3.20;2.90;;;;;;;20.46;44.38;94681.53;6182897;28;109238;-64
2023/10/21 02:04:05;;;;;;;4.10;2.90;;;;;;;20.47;44.39;94677.78;6183375;28;109269;-63
2023/10/21 02:07:09;;;;;;;3.70;2.80;;;;;;;20.48;44.28;94681.22;6182483;28;109036;-63
2023/10/21 02:10:14;;;;;;;3.33;2.60;;;;;;;20.47;44.40;94685.75;6176237;28;110305;-64
2023/10/21 02:13:17;;;;;;;3.13;2.80;;;;;;;20.48;44.20;94678.56;6183188;28;109118;-63
2023/10/21 02:16:21;;;;;;;2.83;2.53;;;;;;;20.47;44.42;94677.78;6183033;28;109252;-63
2023/10/21 02:19:24;;;;;;;2.97;2.67;;;;;;;20.47;44.53;94699.03;6173779;28;109652;-64
2023/10/21 02:22:28;;;;;;;3.10;2.80;;;;;;;20.46;44.59;94686.84;6183108;28;109307;-64
2023/10/21 02:25:33;;;;;;;2.70;2.40;;;;;;;20.47;44.45;94677.00;6185984;28;109885;-64
2023/10/21 02:28:36;;;;;;;3.20;2.90;;;;;;;20.45;44.54;94697.78;6187685;28;109293;-64
2023/10/21 02:31:40;;;;;;;3.20;2.70;;;;;;;20.47;44.47;94687.63;6176002;28;109056;-63
2023/10/21 02:34:43;;;;;;;3.00;2.53;;;;;;;20.47;44.39;94703.56;6187389;28;109048;-63
2023/10/21 02:37:47;;;;;;;3.05;2.70;;;;;;;20.46;44.40;94696.69;6186986;28;109223;-64
2023/10/21 02:40:52;;;;;;;3.47;2.90;;;;;;;20.46;44.46;94697.47;6187321;28;109288;-63
2023/10/21 02:43:55;;;;;;;3.10;2.80;;;;;;;20.46;44.35;94705.44;6176301;28;109113;-63
2023/10/21 02:46:58;;;;;;;3.30;2.50;;;;;;;20.46;44.22;94721.41;6186990;28;109891;-64
2023/10/21 02:50:01;;;;;;;3.83;2.53;;;;;;;20.46;44.63;94728.59;6186789;28;109364;-66
2023/10/21 02:53:04;;;;;;;2.75;2.47;;;;;;;20.47;44.29;94724.84;6182290;28;109718;-63
2023/10/21 02:56:09;;;;;;;3.90;2.90;;;;;;;20.45;44.36;94729.69;6181274;28;110102;-63
2023/10/21 02:59:12;;;;;;;2.85;2.50;;;;;;;20.45;44.21;94729.69;6186776;28;109235;-68
2023/10/21 03:02:15;;;;;;;3.40;2.78;;;;;;;20.44;44.50;94731.53;6186069;28;109513;-63
2023/10/21 03:05:19;;;;;;;3.00;2.67;;;;;;;20.44;44.39;94742.19;6175363;28;109267;-64
2023/10/21 03:08:22;;;;;;;2.92;2.42;;;;;;;20.45;44.27;94745.63;6186429;28;109159;-64
2023/10/21 03:11:26;;;;;;;3.10;2.50;;;;;;;20.43;44.28;94729.97;6186784;28;109736;-62
2023/10/21 03:14:29;;;;;;;3.40;2.80;;;;;;;20.45;44.33;94745.63;6186573;28;109374;-62
2023/10/21 03:17:32;;;;;;;3.28;2.55;;;;;;;20.43;44.51;94743.28;6176559;28;108772;-62
2023/10/21 03:20:36;;;;;;;3.15;2.70;;;;;;;20.43;44.33;94721.22;6186430;28;109151;-64
2023/10/21 03:23:39;;;;;;;3.03;2.60;;;;;;;20.44;44.29;94757.34;6187089;28;111181;-62
2023/10/21 03:26:43;;;;;;;3.30;2.70;;;;;;;20.43;44.14;94739.81;6184648;28;109298;-63
2023/10/21 03:29:46;;;;;;;3.10;2.60;;;;;;;20.44;44.15;94725.44;6180000;28;109985;-62
2023/10/21 03:32:50;;;;;;;3.13;2.50;;;;;;;20.43;44.42;94734.50;6185292;28;110372;-62
2023/10/21 03:35:53;;;;;;;2.90;2.60;;;;;;;20.40;44.35;94738.56;6186465;28;110075;-62
2023/10/21 03:38:56;;;;;;;3.30;2.50;;;;;;;20.41;44.36;94720.75;6176964;28;109147;-62
2023/10/21 03:42:01;;;;;;;2.95;2.65;;;;;;;20.41;44.33;94740.13;6185898;28;109095;-62
2023/10/21 03:45:07;;;;;;;2.85;2.53;;;;;;;20.42;44.58;94732.94;6186039;28;109421;-62
2023/10/21 03:48:10;;;;;;;3.33;2.50;;;;;;;20.41;44.26;94728.72;6185991;28;109142;-62
2023/10/21 03:51:13;;;;;;;3.00;2.63;;;;;;;20.41;44.33;94720.75;6174890;28;109135;-62
2023/10/21 03:54:17;;;;;;;2.92;2.60;;;;;;;20.41;44.44;94712.78;6186439;28;109513;-62
2023/10/21 03:57:22;;;;;;;3.28;2.78;;;;;;;20.41;44.41;94721.53;6186128;28;109417;-62
2023/10/21 04:00:26;;;;;;;2.67;2.40;;;;;;;20.40;44.16;94719.19;6185991;28;109287;-62
2023/10/21 04:03:29;;;;;;;2.85;2.50;;;;;;;20.39;44.62;94709.63;6174568;28;110268;-62
2023/10/21 04:06:32;;;;;;;2.90;2.58;;;;;;;20.40;44.49;94725.28;6185822;28;109392;-62
2023/10/21 04:09:36;;;;;;;2.67;2.40;;;;;;;20.40;44.42;94719.19;6185683;28;109328;-61
2023/10/21 04:12:40;;;;;;;3.20;2.40;;;;;;;20.39;44.24;94720.25;6180509;28;108734;-61
2023/10/21 04:15:43;;;;;;;3.00;2.70;;;;;;;20.40;44.45;94716.53;6180511;28;109114;-62
2023/10/21 04:18:47;;;;;;;3.30;2.60;;;;;;;20.39;44.37;94726.38;6185202;28;109108;-62
2023/10/21 04:21:50;;;;;;;3.00;2.60;;;;;;;20.39;44.41;94720.25;6185415;28;109092;-64
2023/10/21 04:24:53;;;;;;;2.88;2.58;;;;;;;20.40;44.38;94740.44;6174004;28;110720;-64
2023/10/21 04:27:58;;;;;;;2.90;2.60;;;;;;;20.39;44.62;94729.03;6185329;28;110136;-64
2023/10/21 04:31:01;;;;;;;2.80;2.50;;;;;;;20.40;44.46;94740.44;6184548;28;109164;-62
2023/10/21 04:34:04;;;;;;;2.70;2.50;;;;;;;20.39;44.25;94706.97;6160230;28;108719;-63
2023/10/21 04:37:08;;;;;;;3.10;2.70;;;;;;;20.40;44.52;94729.81;6159134;28;109143;-62
2023/10/21 04:40:12;;;;;;;3.50;3.00;;;;;;;20.40;44.35;94757.16;6185666;28;112415;-63
2023/10/21 04:43:17;;;;;;;2.88;2.50;;;;;;;20.39;44.36;94721.03;6185143;28;109723;-63
2023/10/21 04:46:20;;;;;;;3.30;2.70;;;;;;;20.40;44.32;94764.34;6180172;28;109699;-63
2023/10/21 04:49:23;;;;;;;3.40;2.70;;;;;;;20.39;44.33;94763.56;6178377;28;110614;-63
2023/10/21 04:52:26;;;;;;;2.65;2.40;;;;;;;20.39;44.36;94755.59;6184807;28;109138;-63
2023/10/21 04:55:29;;;;;;;3.20;2.60;;;;;;;20.38;44.38;94759.34;6185095;28;109889;-67
2023/10/21 04:58:34;;;;;;;3.23;2.83;;;;;;;20.38;44.41;94769.19;6173972;28;110549;-63
2023/10/21 05:01:37;;;;;;;3.55;2.80;;;;;;;20.40;44.29;94772.31;6184489;28;109241;-63
2023/10/21 05:04:41;;;;;;;3.20;2.90;;;;;;;20.39;44.08;94771.53;6183633;28;109928;-63
2023/10/21 05:07:44;;;;;;;3.40;3.00;;;;;;;20.39;44.53;94805.31;6184722;28;110131;-63
2023/10/21 05:10:48;;;;;;;3.10;2.80;;;;;;;20.38;44.30;94787.78;6174703;28;110475;-63
2023/10/21 05:13:52;;;;;;;3.10;2.80;;;;;;;20.38;44.47;94801.88;6184260;28;109713;-64
2023/10/21 05:16:55;;;;;;;3.08;2.78;;;;;;;20.40;44.33;94817.50;6184146;28;109491;-63
2023/10/21 05:19:59;;;;;;;3.33;2.80;;;;;;;20.38;44.54;94809.84;6184112;28;109167;-63
2023/10/21 05:23:02;;;;;;;3.10;2.50;;;;;;;20.41;44.36;94824.38;6173532;28;109324;-64
2023/10/21 05:26:05;;;;;;;3.20;2.80;;;;;;;20.39;44.49;94814.06;6184563;28;110947;-64
2023/10/21 05:29:11;;;;;;;2.90;2.50;;;;;;;20.40;44.34;94822.81;6184059;28;110264;-63
2023/10/21 05:32:15;;;;;;;3.03;2.73;;;;;;;20.40;44.43;94828.13;6166142;28;110198;-66
2023/10/21 05:35:19;;;;;;;3.90;3.00;;;;;;;20.41;44.36;94816.41;6179906;28;109217;-65
2023/10/21 05:38:22;;;;;;;2.97;2.67;;;;;;;20.40;43.95;94834.22;6184193;28;110424;-64
2023/10/21 05:41:25;;;;;;;2.97;2.67;;;;;;;20.41;44.35;94843.00;6183980;28;109180;-64
2023/10/21 05:44:29;;;;;;;3.50;3.00;;;;;;;20.42;44.14;94823.31;6173563;28;109309;-65
2023/10/21 05:47:49;;;;;;;2.90;2.60;;;;;;;20.44;44.21;94861.00;6183909;28;109421;-65
2023/10/21 05:50:53;;;;;;;3.20;2.90;;;;;;;20.44;44.28;94832.53;6183775;28;109024;-65
2023/10/21 05:53:57;;;;;;;3.20;2.90;;;;;;;20.45;44.42;94851.94;6183393;28;109722;-63
2023/10/21 05:57:00;;;;;;;3.90;3.38;;;;;;;20.45;44.03;94858.03;6172471;28;109180;-66
2023/10/21 06:00:07;;;;;;;3.50;3.20;;;;;;;20.49;44.14;94860.88;6185595;28;109040;-66
2023/10/21 06:03:10;;;;;;;3.30;3.00;;;;;;;20.53;43.84;94881.25;6188313;28;109366;-66
2023/10/21 06:06:14;;;;;;;3.58;3.28;;;;;;;20.57;43.73;94852.19;6182667;28;109295;-66
2023/10/21 06:09:17;;;;;;;3.20;2.85;;;;;;;20.64;43.62;94879.16;6183143;28;110244;-65
2023/10/21 06:12:20;;;;;;;3.10;2.80;;;;;;;20.69;43.70;94872.94;6188423;28;110448;-64
2023/10/21 06:15:25;;;;;;;3.40;3.10;;;;;;;20.74;43.81;94849.69;6188142;28;109238;-65
2023/10/21 06:18:28;;;;;;;3.22;2.90;;;;;;;20.81;43.40;94875.84;6176851;28;109080;-66
2023/10/21 06:21:32;;;;;;;3.60;3.30;;;;;;;20.87;43.35;94872.78;6188221;28;110067;-65
2023/10/21 06:24:35;;;;;;;3.20;2.90;;;;;;;20.92;43.42;94885.94;6187977;28;109556;-65
2023/10/21 06:27:39;;;;;;;3.30;3.00;;;;;;;21.01;43.23;94875.38;6187978;28;109888;-64
2023/10/21 06:30:43;;;;;;;3.40;3.10;;;;;;;21.09;43.14;94857.94;6177872;28;109417;-65
2023/10/21 06:33:46;;;;;;;3.37;2.90;;;;;;;21.15;43.25;94870.00;6187024;28;109129;-65
2023/10/21 06:36:50;;;;;;;3.50;3.20;;;;;;;21.23;43.03;94873.84;6186973;28;109315;-65
2023/10/21 06:39:53;;;;;;;3.40;3.10;;;;;;;21.31;43.21;94865.88;6183458;28;109084;-64
2023/10/21 06:42:57;;;;;;;3.80;3.40;;;;;;;21.36;43.03;94863.13;6181772;28;109223;-61
2023/10/21 06:46:02;;;;;;;3.80;3.40;;;;;;;21.43;42.73;94874.09;6186905;28;109269;-61
2023/10/21 06:49:05;;;;;;;3.20;2.90;;;;;;;21.49;42.67;94877.41;6186861;28;109118;-61
2023/10/21 06:52:08;;;;;;;3.67;3.30;;;;;;;21.53;42.35;94873.06;6176555;28;109481;-62
2023/10/21 06:55:11;;;;;;;3.83;3.50;;;;;;;21.58;42.47;94874.81;6186878;28;109377;-62
2023/10/21 06:58:15;;;;;;;4.10;3.70;;;;;;;21.63;42.48;94880.78;6187660;28;110139;-62
2023/10/21 07:01:19;;;;;;;4.00;3.60;;;;;;;21.66;42.10;94880.16;6186809;28;109133;-61
2023/10/21 07:04:22;;;;;;;3.50;3.17;;;;;;;21.73;42.00;94898.38;6177773;28;109891;-62
2023/10/21 07:07:25;;;;;;;3.60;3.30;;;;;;;21.77;42.16;94867.38;6186105;28;109137;-62
2023/10/21 07:10:30;;;;;;;4.20;3.50;;;;;;;21.81;42.25;94863.78;6186915;28;109050;-62
2023/10/21 07:13:34;;;;;;;3.72;3.42;;;;;;;21.84;41.94;94873.06;6187136;28;109113;-62
2023/10/21 07:16:40;;;;;;;4.10;3.70;;;;;;;21.86;41.91;94857.56;6176722;28;109261;-62
2023/10/21 07:19:43;;;;;;;4.55;4.15;;;;;;;21.91;42.05;94860.09;6187112;28;108909;-62
2023/10/21 07:22:47;;;;;;;4.50;4.10;;;;;;;21.96;41.78;94853.81;6186706;28;109262;-62
2023/10/21 07:25:51;;;;;;;4.40;4.00;;;;;;;21.98;41.67;94895.03;6181579;28;109422;-62
2023/10/21 07:28:54;;;;;;;4.50;4.10;;;;;;;22.01;42.06;94851.81;6183832;28;109928;-62
2023/10/21 07:31:59;;;;;;;4.23;3.83;;;;;;;22.04;41.78;94861.06;6186144;28;109080;-62
2023/10/21 07:35:03;;;;;;;4.50;4.10;;;;;;;22.06;41.66;94857.00;6186184;28;109135;-62
2023/10/21 07:38:06;;;;;;;4.40;4.00;;;;;;;22.09;41.48;94858.25;6175914;28;109457;-62
2023/10/21 07:41:10;;;;;;;4.40;4.00;;;;;;;22.12;41.76;94884.28;6186163;28;109065;-62
2023/10/21 07:44:13;;;;;;;4.70;4.20;;;;;;;22.14;42.15;94844.00;6186183;28;110289;-62
2023/10/21 07:47:23;;;;;;;4.95;4.45;;;;;;;22.16;41.87;94847.13;6186349;28;109893;-62
2023/10/21 07:50:26;;;;;;;4.60;4.20;;;;;;;22.17;41.75;94870.81;6176624;28;110820;-65
2023/10/21 07:53:30;;;;;;;4.50;4.10;;;;;;;22.19;41.48;94859.88;6186229;28;109307;-65
2023/10/21 07:56:33;;;;;;;5.10;4.60;;;;;;;22.21;41.93;94863.00;6186176;28;110152;-65
2023/10/21 07:59:36;;;;;;;5.05;4.55;;;;;;;22.21;41.59;94884.31;6181012;28;108985;-63
2023/10/21 08:02:40;;;;;;;5.07;4.57;;;;;;;22.22;41.74;94853.91;6181611;28;109224;-64
2023/10/21 08:05:44;;;;;;;4.93;4.43;;;;;;;22.22;41.95;94870.69;6186108;28;109033;-64
2023/10/21 08:08:47;;;;;;;5.30;4.80;;;;;;;22.22;41.52;94861.91;6185380;28;108927;-64
2023/10/21 08:11:50;;;;;;;5.10;4.70;;;;;;;22.24;41.46;94831.16;6175624;28;109257;-64
2023/10/21 08:14:53;;;;;;;5.30;4.80;;;;;;;22.24;42.02;94849.81;6185706;28;110347;-64
2023/10/21 08:17:58;;;;;;;5.55;5.05;;;;;;;22.24;41.62;94831.16;6185426;28;109383;-63
2023/10/21 08:21:02;;;;;;;5.40;4.90;;;;;;;22.26;42.07;94842.31;6185081;28;109097;-63
2023/10/21 08:24:08;;;;;;;5.10;4.70;;;;;;;22.27;41.79;94853.75;6173681;28;109110;-63
2023/10/21 08:27:12;;;;;;;5.80;5.30;;;;;;;22.27;41.54;94840.41;6184985;28;109412;-64
2023/10/21 08:30:15;;;;;;;5.30;4.80;;;;;;;22.26;41.70;94841.53;6185430;28;110456;-64
2023/10/21 08:33:19;;;;;;;5.90;5.40;;;;;;;22.23;42.01;94864.25;6184222;28;109048;-63
2023/10/21 08:36:22;;;;;;;5.15;4.65;;;;;;;22.23;41.50;94834.16;6177902;28;109088;-64
2023/10/21 08:39:26;;;;;;;5.70;5.20;;;;;;;22.23;42.11;94820.81;6184452;28;111593;-64
2023/10/21 08:42:30;;;;;;;5.60;5.00;;;;;;;22.23;42.07;94834.16;6184885;28;109058;-64
2023/10/21 08:45:53;;;;;;;5.90;5.30;;;;;;;22.20;41.73;94843.56;6174605;28;109536;-64
2023/10/21 08:49:00;;;;;;;5.32;4.82;;;;;;;22.20;41.66;94837.44;6184853;28;109522;-64
2023/10/21 08:52:05;;;;;;;5.82;5.32;;;;;;;22.20;41.87;94846.22;6185273;28;109090;-64
2023/10/21 08:55:09;;;;;;;6.20;5.60;;;;;;;22.19;42.05;94817.22;6185113;28;109388;-64
2023/10/21 08:58:12;;;;;;;6.20;5.70;;;;;;;22.17;42.07;94824.72;6174294;28;109524;-64
2023/10/21 09:01:16;;;;;;;6.50;5.90;;;;;;;22.16;42.31;94847.13;6185495;28;110043;-62
2023/10/21 09:04:22;;;;;;;5.97;5.47;;;;;;;22.16;42.01;94828.47;6184552;28;109324;-61
2023/10/21 09:07:42;;;;;;;6.40;5.80;;;;;;;22.15;42.20;94813.59;6182621;28;109108;-64
2023/10/21 09:10:58;;;;;;;5.80;5.30;;;;;;;22.14;42.31;94818.13;6177813;28;108980;-62
2023/10/21 09:14:02;;;;;;;6.47;5.87;;;;;;;22.14;42.18;94809.34;6184518;28;109353;-63
2023/10/21 09:17:05;;;;;;;5.93;5.32;;;;;;;22.14;42.44;94812.00;6184463;28;109015;-62
2023/10/21 09:20:11;;;;;;;6.35;5.78;;;;;;;22.14;42.06;94809.34;6173359;28;109737;-63
2023/10/21 09:23:17;;;;;;;6.00;5.50;;;;;;;22.14;42.29;94806.69;6183977;28;112637;-62
2023/10/21 09:26:20;;;;;;;6.30;5.70;;;;;;;22.15;42.24;94802.91;6184302;28;109888;-61
2023/10/21 09:29:24;;;;;;;6.57;5.97;;;;;;;22.13;41.90;94805.91;6184224;28;109518;-62
2023/10/21 09:32:28;;;;;;;6.22;5.63;;;;;;;22.16;41.74;94815.16;6173151;28;110806;-62
2023/10/21 09:35:34;;;;;;;6.82;6.22;;;;;;;22.18;41.81;94815.63;6183619;28;109000;-64
2023/10/21 09:38:41;;;;;;;6.20;5.70;;;;;;;22.17;42.17;94817.50;6183984;28;110540;-62
2023/10/21 09:41:44;;;;;;;5.80;5.30;;;;;;;22.19;42.36;94810.00;6178001;28;109304;-61
2023/10/21 09:44:49;;;;;;;6.38;5.70;;;;;;;22.20;42.23;94802.78;6177949;28;109209;-62
2023/10/21 09:47:55;;;;;;;6.22;5.65;;;;;;;22.22;42.27;94805.94;6183931;28;110490;-62
2023/10/21 09:51:00;;;;;;;6.10;5.60;;;;;;;22.22;42.12;94801.38;6183751;28;110211;-62
2023/10/21 09:54:11;;;;;;;6.40;5.80;;;;;;;22.22;41.63;94804.03;6173716;28;109823;-62
2023/10/21 09:57:15;;;;;;;6.70;6.00;;;;;;;22.23;41.68;94788.84;6183610;28;109532;-61
2023/10/21 10:00:19;;;;;;;6.13;5.53;;;;;;;22.24;41.61;94791.19;6183823;28;110464;-62
2023/10/21 10:03:24;;;;;;;6.60;6.00;;;;;;;22.26;41.99;94806.88;6184101;28;109965;-62
2023/10/21 10:06:31;;;;;;;6.53;5.93;;;;;;;22.26;41.90;94791.66;6173950;28;110166;-62
2023/10/21 10:09:40;;;;;;;6.13;5.63;;;;;;;22.26;42.27;94794.31;6183730;28;110163;-62
2023/10/21 10:12:52;;;;;;;6.60;6.00;;;;;;;22.27;42.23;94805.78;6182531;28;109196;-62
2023/10/21 10:15:56;;;;;;;6.80;6.20;;;;;;;22.25;42.17;94787.44;6178660;28;109169;-63
2023/10/21 10:18:59;;;;;;;6.70;6.10;;;;;;;22.25;41.96;94781.31;6177498;28;109027;-63
2023/10/21 10:22:18;;;;;;;6.65;6.10;;;;;;;22.26;42.46;94789.00;6183455;28;109010;-62
2023/10/21 10:25:27;;;;;;;6.85;6.25;;;;;;;22.26;42.32;94786.31;6183222;28;109617;-63
2023/10/21 10:28:32;;;;;;;6.75;6.15;;;;;;;22.27;41.82;94757.78;6173194;28;109790;-62
2023/10/21 10:31:35;;;;;;;7.00;6.40;;;;;;;22.25;42.25;94760.78;6182408;28;110081;-62
2023/10/21 10:34:49;;;;;;;6.72;6.13;;;;;;;22.26;42.30;94774.88;6183486;28;109254;-62
2023/10/21 10:37:54;;;;;;;7.20;6.60;;;;;;;22.26;41.92;94782.88;6183460;28;109135;-62
2023/10/21 10:41:05;;;;;;;6.70;6.10;;;;;;;22.25;42.06;94766.09;6172310;28;109148;-63
2023/10/21 10:44:10;;;;;;;6.68;6.07;;;;;;;22.23;42.04;94768.28;6182442;28;109069;-63
2023/10/21 10:47:13;;;;;;;6.55;5.95;;;;;;;22.23;41.88;94770.19;6186709;28;109228;-63
2023/10/21 10:50:23;;;;;;;7.20;6.60;;;;;;;22.21;42.19;94780.38;6181543;28;109378;-66
2023/10/21 10:53:28;;;;;;;7.10;6.50;;;;;;;22.20;41.87;94787.59;6186040;28;109673;-63
2023/10/21 10:56:40;;;;;;;7.30;6.60;;;;;;;22.18;42.31;94773.78;6186901;28;109459;-64
2023/10/21 10:59:44;;;;;;;6.80;6.20;;;;;;;22.18;42.51;94776.44;6186658;28;109240;-63
2023/10/21 11:02:47;;;;;;;7.20;6.60;;;;;;;22.18;42.12;94780.97;6176467;28;109706;-63
2023/10/21 11:05:51;;;;;;;6.80;6.20;;;;;;;22.18;42.29;94783.63;6187870;28;111908;-63
2023/10/21 11:08:56;;;;;;;7.03;6.43;;;;;;;22.17;42.01;94787.41;6186736;28;109303;-63
2023/10/21 11:12:00;;;;;;;7.00;6.40;;;;;;;22.16;42.04;94781.28;6187386;28;110961;-63
2023/10/21 11:15:07;;;;;;;7.33;6.73;;;;;;;22.15;42.19;94782.38;6175108;28;109101;-63
2023/10/21 11:18:10;;;;;;;6.80;6.20;;;;;;;22.15;42.14;94781.59;6186630;28;109245;-64
2023/10/21 11:21:14;;;;;;;6.93;6.22;;;;;;;22.14;42.62;94791.47;6186372;28;109948;-63
2023/10/21 11:24:19;;;;;;;7.10;6.40;;;;;;;22.12;42.21;94783.00;6181653;28;110230;-64
2023/10/21 11:27:23;;;;;;;7.80;7.10;;;;;;;22.10;42.59;94774.56;6182573;28;110332;-65
2023/10/21 11:30:26;;;;;;;7.00;6.40;;;;;;;22.09;42.70;94770.31;6186863;28;110110;-62
2023/10/21 11:33:30;;;;;;;7.50;6.80;;;;;;;22.08;42.31;94772.19;6185879;28;109495;-63
2023/10/21 11:36:33;;;;;;;7.32;6.70;;;;;;;22.06;42.40;94779.72;6176490;28;109244;-62
2023/10/21 11:39:40;;;;;;;6.80;6.20;;;;;;;22.06;42.66;94769.06;6185979;28;109311;-62
2023/10/21 11:42:58;;;;;;;7.03;6.43;;;;;;;22.04;42.45;94765.94;6186648;28;112005;-62
2023/10/21 11:46:03;;;;;;;7.32;6.72;;;;;;;22.05;42.60;94772.81;6185380;28;109214;-64
2023/10/21 11:49:13;;;;;;;7.20;6.50;;;;;;;22.03;42.62;94774.25;6175724;28;109134;-62
2023/10/21 11:52:17;;;;;;;7.43;6.73;;;;;;;22.00;42.64;94764.97;6186320;28;109584;-62
2023/10/21 11:55:51;;;;;;;7.43;6.78;;;;;;;22.00;42.46;94764.97;6185940;28;109129;-62
2023/10/21 12:16:55;;;;;;;7.05;6.45;;;;;;;21.95;42.63;94778.44;6185986;28;110148;-62
2023/10/21 12:37:28;;;;;;;6.73;6.13;;;;;;;21.91;42.95;94774.84;6184435;28;112694;-62
2023/10/21 12:40:31;;;;;;;6.65;6.05;;;;;;;21.90;42.91;94767.16;6184752;28;109208;-61
2023/10/21 12:43:35;;;;;;;7.30;6.70;;;;;;;21.91;42.75;94772.19;6180094;28;109140;-61
2023/10/21 12:46:40;;;;;;;7.38;6.68;;;;;;;21.91;42.96;94804.16;6179445;28;109524;-62
2023/10/21 12:49:43;;;;;;;7.10;6.40;;;;;;;21.91;42.82;94782.03;6184726;28;110274;-62
2023/10/21 12:52:47;;;;;;;7.17;6.57;;;;;;;21.91;42.53;94785.50;6184156;28;109321;-65
2023/10/21 12:55:51;;;;;;;7.40;6.70;;;;;;;21.89;42.89;94769.03;6173715;28;109288;-62
2023/10/21 12:58:54;;;;;;;7.03;6.43;;;;;;;21.89;42.87;94771.69;6184840;28;109470;-68
2023/10/21 13:01:59;;;;;;;7.10;6.50;;;;;;;21.89;42.79;94779.69;6184497;28;109253;-61
2023/10/21 13:05:03;;;;;;;6.90;6.30;;;;;;;21.87;43.01;94768.56;6184260;28;109408;-62
2023/10/21 13:08:09;;;;;;;7.00;6.40;;;;;;;21.89;42.94;94779.69;6173461;28;109099;-61
2023/10/21 13:11:14;;;;;;;6.65;6.05;;;;;;;21.88;42.95;94772.81;6184510;28;109245;-61
2023/10/21 13:14:18;;;;;;;6.80;6.20;;;;;;;21.89;43.28;94773.59;6184785;28;109137;-61
2023/10/21 13:17:23;;;;;;;6.70;6.10;;;;;;;21.90;43.25;94772.50;6181605;28;109688;-62
2023/10/21 13:20:26;;;;;;;7.00;6.40;;;;;;;21.88;43.02;94772.81;6177868;28;109219;-61
2023/10/21 13:23:29;;;;;;;6.43;5.82;;;;;;;21.88;42.69;94778.13;6183839;28;108828;-62
2023/10/21 13:26:32;;;;;;;6.90;6.30;;;;;;;21.87;42.83;94779.22;6184254;28;109907;-62
2023/10/21 13:29:36;;;;;;;6.80;6.20;;;;;;;21.88;43.14;94780.78;6173387;28;109361;-61
2023/10/21 13:32:40;;;;;;;6.85;6.25;;;;;;;21.87;43.02;94779.22;6158902;28;111215;-62
2023/10/21 13:35:44;;;;;;;6.70;6.10;;;;;;;21.87;43.28;94781.88;6168194;28;109317;-61
2023/10/21 13:38:47;;;;;;;7.00;6.40;;;;;;;21.86;43.01;94780.31;6184086;28;109253;-61
2023/10/21 13:41:50;;;;;;;6.65;6.10;;;;;;;21.88;43.15;94788.78;6173818;28;110267;-61
2023/10/21 13:44:53;;;;;;;6.53;5.93;;;;;;;21.86;43.27;94779.53;6184074;28;109153;-61
2023/10/21 13:47:59;;;;;;;6.40;5.90;;;;;;;21.87;43.00;94786.44;6184130;28;108897;-63
2023/10/21 13:51:08;;;;;;;6.50;5.90;;;;;;;21.87;42.84;94778.44;6183599;28;109242;-61
2023/10/21 13:54:12;;;;;;;6.45;5.85;;;;;;;21.86;43.03;94782.97;6172717;28;110272;-62
2023/10/21 13:57:16;;;;;;;6.30;5.70;;;;;;;21.86;43.00;94785.66;6183560;28;109233;-61
2023/10/21 14:00:33;;;;;;;6.40;5.80;;;;;;;21.87;42.69;94773.91;6183392;28;109360;-61
2023/10/21 14:03:39;;;;;;;6.40;5.80;;;;;;;21.86;43.30;94780.31;6173852;28;109641;-63
2023/10/21 14:06:43;;;;;;;6.13;5.63;;;;;;;21.87;43.15;94776.56;6183715;28;109819;-62
2023/10/21 14:09:46;;;;;;;6.20;5.60;;;;;;;21.86;43.28;94782.97;6183954;28;110180;-62
2023/10/21 14:12:49;;;;;;;6.00;5.50;;;;;;;21.86;43.33;94780.31;6183580;28;109366;-61
2023/10/21 14:15:54;;;;;;;6.10;5.50;;;;;;;21.86;43.08;94772.31;6172659;28;109181;-62
2023/10/21 14:18:59;;;;;;;6.00;5.50;;;;;;;21.86;43.29;94776.88;6183884;28;110093;-61
2023/10/21 14:22:03;;;;;;;5.97;5.45;;;;;;;21.85;43.40;94777.97;6186635;28;110080;-61
2023/10/21 14:25:07;;;;;;;5.85;5.35;;;;;;;21.85;43.49;94773.44;6186860;28;109340;-61
2023/10/21 14:28:13;;;;;;;5.60;5.10;;;;;;;21.85;43.36;94778.75;6177788;28;110262;-61
2023/10/21 14:31:21;;;;;;;5.93;5.43;;;;;;;21.86;43.27;94782.97;6186851;28;109166;-61
2023/10/21 14:34:27;;;;;;;5.75;5.22;;;;;;;21.85;43.43;94777.97;6187384;28;108984;-62
2023/10/21 14:37:31;;;;;;;6.47;5.88;;;;;;;21.85;42.99;94789.41;6179590;28;109145;-64
2023/10/21 14:40:34;;;;;;;6.05;5.55;;;;;;;21.85;42.97;94789.41;6184917;28;110385;-62
2023/10/21 14:43:37;;;;;;;6.00;5.50;;;;;;;21.84;43.30;94793.13;6187045;28;109277;-61
2023/10/21 14:46:41;;;;;;;5.67;5.17;;;;;;;21.84;42.91;94787.81;6187291;28;110474;-62
2023/10/21 14:49:46;;;;;;;5.82;5.32;;;;;;;21.84;43.21;94787.81;6176263;28;109348;-62
2023/10/21 14:52:50;;;;;;;5.80;5.30;;;;;;;21.85;43.25;94789.41;6186747;28;108852;-62